createdAt,value
2023-01-11T00:02:59.808Z,76.00
2023-01-11T00:06:02.620Z,75.50
2023-01-11T00:09:05.484Z,74.70
2023-01-11T00:12:12.318Z,76.60
2023-01-11T00:15:16.210Z,76.20
2023-01-11T00:18:19.060Z,76.00
2023-01-11T00:21:22.492Z,76.10
2023-01-11T00:24:25.290Z,76.30
2023-01-11T00:27:29.540Z,76.40
2023-01-11T00:30:32.818Z,76.50
2023-01-11T00:33:35.991Z,74.60
2023-01-11T00:36:38.950Z,76.10
2023-01-11T00:39:41.849Z,76.00
2023-01-11T00:43:04.007Z,75.90
2023-01-11T00:46:30.078Z,76.20
2023-01-11T00:49:33.893Z,75.70
2023-01-11T00:52:36.807Z,75.80
2023-01-11T00:55:39.727Z,75.90
2023-01-11T00:58:43.919Z,75.80
2023-01-11T01:01:46.793Z,75.70
2023-01-11T01:04:49.698Z,75.70
2023-01-11T01:07:52.557Z,75.60
2023-01-11T01:10:55.486Z,75.70
2023-01-11T01:14:17.740Z,75.80
2023-01-11T01:17:20.565Z,76.00
2023-01-11T01:20:23.743Z,76.20
2023-01-11T01:23:26.585Z,76.30
2023-01-11T01:26:29.692Z,77.20
2023-01-11T01:29:33.906Z,76.50
2023-01-11T01:32:36.816Z,76.20
2023-01-11T01:35:39.662Z,76.20
2023-01-11T01:38:42.532Z,76.30
2023-01-11T01:41:45.406Z,76.80
2023-01-11T01:45:02.280Z,77.00
2023-01-11T01:48:07.190Z,77.00
2023-01-11T01:51:14.281Z,77.20
2023-01-11T01:54:21.158Z,77.40
2023-01-11T01:57:29.938Z,77.80
2023-01-11T02:00:34.417Z,76.80
2023-01-11T02:03:37.644Z,77.70
2023-01-11T02:06:41.617Z,77.70
2023-01-11T02:09:49.560Z,78.80
2023-01-11T02:12:58.133Z,77.90
2023-01-11T02:16:08.635Z,78.00
2023-01-11T02:19:22.123Z,78.10
2023-01-11T02:23:11.077Z,78.20
2023-01-11T02:26:49.781Z,78.40
2023-01-11T02:30:06.356Z,78.60
2023-01-11T02:33:17.292Z,78.80
2023-01-11T02:36:30.452Z,78.80
2023-01-11T02:39:42.229Z,78.50
2023-01-11T02:43:17.670Z,78.90
2023-01-11T02:46:30.417Z,78.90
2023-01-11T02:49:38.955Z,79.60
2023-01-11T02:52:50.967Z,79.10
2023-01-11T02:55:58.076Z,80.50
2023-01-11T02:59:01.528Z,79.70
2023-01-11T03:02:06.241Z,79.80
2023-01-11T03:05:13.230Z,79.90
2023-01-11T03:08:51.902Z,79.50
2023-01-11T03:12:23.252Z,80.10
2023-01-11T03:16:11.099Z,80.20
2023-01-11T03:19:26.442Z,80.10
2023-01-11T03:22:35.493Z,81.40
2023-01-11T03:25:47.807Z,81.10
2023-01-11T03:28:58.062Z,82.00
2023-01-11T03:32:11.570Z,81.00
2023-01-11T03:35:21.174Z,81.00
2023-01-11T03:38:28.590Z,81.10
2023-01-11T03:41:36.837Z,81.30
2023-01-11T03:44:43.852Z,81.40
2023-01-11T03:47:46.908Z,81.30
2023-01-11T03:50:55.819Z,82.60
2023-01-11T03:53:59.991Z,81.50
2023-01-11T03:57:06.878Z,81.60
2023-01-11T04:00:11.007Z,81.60
2023-01-11T04:03:14.738Z,80.70
2023-01-11T04:06:19.764Z,81.80
2023-01-11T04:09:22.763Z,81.80
2023-01-11T04:12:25.634Z,81.80
2023-01-11T04:15:30.181Z,83.10
2023-01-11T04:18:33.015Z,82.00
2023-01-11T04:21:37.155Z,82.90
2023-01-11T04:24:40.043Z,83.20
2023-01-11T04:27:42.870Z,83.20
2023-01-11T04:30:46.140Z,82.80
2023-01-11T04:33:48.991Z,82.10
2023-01-11T04:36:53.238Z,81.10
2023-01-11T04:39:56.077Z,82.30
2023-01-11T04:43:02.103Z,82.30
2023-01-11T04:46:05.155Z,82.20
2023-01-11T04:49:08.020Z,83.50
2023-01-11T04:52:14.175Z,82.20
2023-01-11T04:55:17.239Z,81.30
2023-01-11T04:58:19.997Z,82.20
2023-01-11T05:01:22.829Z,82.30
2023-01-11T05:04:25.803Z,82.30
2023-01-11T05:07:30.031Z,82.80
2023-01-11T05:10:33.277Z,81.80
2023-01-11T05:13:45.395Z,82.40
2023-01-11T05:16:48.314Z,83.20
2023-01-11T05:19:51.106Z,83.60
2023-01-11T05:22:55.269Z,82.40
2023-01-11T05:25:58.107Z,82.70
2023-01-11T05:29:03.773Z,82.40
2023-01-11T05:32:06.992Z,83.50
2023-01-11T05:35:11.171Z,82.60
2023-01-11T05:38:15.439Z,81.90
2023-01-11T05:41:20.044Z,82.50
2023-01-11T05:44:40.705Z,82.60
2023-01-11T05:47:43.546Z,82.50
2023-01-11T05:50:51.975Z,82.40
2023-01-11T05:53:56.803Z,82.40
2023-01-11T05:56:59.633Z,82.00
2023-01-11T06:00:02.646Z,81.50
2023-01-11T06:03:05.529Z,82.10
2023-01-11T06:06:08.731Z,82.30
2023-01-11T06:09:12.884Z,82.30
2023-01-11T06:12:15.674Z,82.50
2023-01-11T06:15:18.487Z,81.20
2023-01-11T06:18:22.067Z,81.70
2023-01-11T06:21:25.107Z,82.20
2023-01-11T06:24:29.266Z,82.10
2023-01-11T06:27:32.049Z,81.60
2023-01-11T06:30:34.987Z,82.10
2023-01-11T06:33:37.853Z,82.00
2023-01-11T06:36:42.674Z,82.00
2023-01-11T06:39:46.925Z,82.80
2023-01-11T06:42:49.707Z,82.10
2023-01-11T06:45:52.813Z,81.30
2023-01-11T06:48:55.640Z,81.90
2023-01-11T06:51:58.428Z,81.80
2023-01-11T06:55:02.904Z,81.80
2023-01-11T06:58:05.775Z,81.70
2023-01-11T07:01:09.268Z,81.80
2023-01-11T07:04:13.173Z,81.70
2023-01-11T07:07:16.056Z,81.60
2023-01-11T07:10:20.393Z,81.70
2023-01-11T07:13:23.439Z,81.60
2023-01-11T07:16:26.588Z,82.80
2023-01-11T07:19:29.416Z,81.70
2023-01-11T07:22:34.798Z,82.00
2023-01-11T07:25:39.187Z,81.60
2023-01-11T07:28:41.977Z,81.80
2023-01-11T07:31:44.868Z,81.60
2023-01-11T07:34:47.926Z,81.90
2023-01-11T07:37:50.938Z,81.40
2023-01-11T07:40:55.194Z,81.90
2023-01-11T07:43:57.116Z,81.70
2023-01-11T07:47:00.020Z,81.70
2023-01-11T07:50:04.255Z,81.70
2023-01-11T07:53:08.381Z,81.20
2023-01-11T07:56:12.563Z,82.00
2023-01-11T07:59:15.386Z,81.60
2023-01-11T08:02:18.256Z,81.60
2023-01-11T08:05:22.300Z,81.50
2023-01-11T08:08:25.175Z,81.00
2023-01-11T08:11:46.900Z,81.40
2023-01-11T08:14:49.718Z,81.00
2023-01-11T08:17:52.610Z,81.40
2023-01-11T08:20:55.461Z,80.80
2023-01-11T08:24:00.025Z,80.70
2023-01-11T08:27:04.799Z,80.30
2023-01-11T08:30:08.662Z,81.30
2023-01-11T08:33:11.606Z,82.30
2023-01-11T08:36:14.541Z,82.40
2023-01-11T08:39:17.478Z,81.20
2023-01-11T08:42:21.608Z,81.10
2023-01-11T08:45:24.707Z,81.10
2023-01-11T08:48:27.518Z,81.00
2023-01-11T08:51:30.368Z,81.00
2023-01-11T08:54:33.194Z,81.50
2023-01-11T08:57:37.513Z,79.80
2023-01-11T09:00:40.860Z,81.00
2023-01-11T09:03:43.753Z,82.40
2023-01-11T09:06:46.865Z,81.00
2023-01-11T09:09:50.380Z,80.90
2023-01-11T09:12:54.736Z,82.10
2023-01-11T09:15:58.189Z,80.90
2023-01-11T09:19:01.026Z,82.10
2023-01-11T09:22:03.826Z,81.10
2023-01-11T09:25:08.040Z,80.30
2023-01-11T09:28:12.152Z,80.10
2023-01-11T09:31:15.071Z,80.90
2023-01-11T09:34:19.155Z,80.80
2023-01-11T09:37:22.760Z,80.80
2023-01-11T09:40:34.730Z,79.70
2023-01-11T09:43:45.153Z,80.80
2023-01-11T09:46:52.205Z,80.70
2023-01-11T09:49:58.872Z,79.30
2023-01-11T09:53:07.881Z,80.40
2023-01-11T09:56:14.705Z,80.30
2023-01-11T09:59:26.883Z,80.50
2023-01-11T10:02:38.336Z,80.40
2023-01-11T10:05:59.421Z,80.30
2023-01-11T10:18:31.764Z,80.20
2023-01-11T10:20:04.406Z,80.20
2023-01-11T10:23:14.907Z,80.90
2023-01-11T10:26:27.570Z,80.30
2023-01-11T10:29:59.480Z,80.20
2023-01-11T10:33:18.227Z,80.20
2023-01-11T10:36:51.669Z,80.80
2023-01-11T10:40:19.442Z,81.10
2023-01-11T10:43:25.389Z,80.30
2023-01-11T10:46:29.683Z,80.30
2023-01-11T10:49:43.145Z,79.80
2023-01-11T10:52:53.576Z,80.10
2023-01-11T10:56:06.746Z,80.10
2023-01-11T10:59:25.179Z,80.00
2023-01-11T11:02:47.412Z,80.00
2023-01-11T11:05:57.602Z,80.20
2023-01-11T11:09:08.588Z,80.50
2023-01-11T11:12:15.781Z,79.80
2023-01-11T11:15:26.092Z,79.80
2023-01-11T11:18:29.104Z,80.30
2023-01-11T11:21:39.255Z,79.70
2023-01-11T11:24:45.271Z,79.10
2023-01-11T11:27:51.160Z,79.40
2023-01-11T11:30:55.559Z,79.20
2023-01-11T11:33:58.576Z,79.10
2023-01-11T11:37:02.841Z,79.00
2023-01-11T11:40:06.827Z,78.90
2023-01-11T11:43:20.451Z,78.70
2023-01-11T11:46:27.533Z,78.60
2023-01-11T11:49:31.629Z,79.00
2023-01-11T11:52:35.936Z,78.30
2023-01-11T11:55:39.417Z,78.20
2023-01-11T11:58:43.316Z,78.30
2023-01-11T12:01:49.449Z,77.10
2023-01-11T12:04:53.634Z,77.10
2023-01-11T12:07:58.361Z,78.00
2023-01-11T12:11:03.811Z,77.80
2023-01-11T12:14:17.912Z,77.80
2023-01-11T12:17:24.747Z,77.80
2023-01-11T12:20:31.942Z,77.70
2023-01-11T12:23:36.163Z,77.50
2023-01-11T12:26:46.040Z,77.10
2023-01-11T12:29:58.749Z,77.40
2023-01-11T12:33:25.349Z,77.40
2023-01-11T12:36:37.107Z,77.40
2023-01-11T12:39:49.781Z,77.50
2023-01-11T12:43:08.837Z,76.80
2023-01-11T12:46:21.900Z,76.70
2023-01-11T12:49:35.898Z,78.30
2023-01-11T12:53:11.720Z,77.20
2023-01-11T12:56:32.481Z,77.10
2023-01-11T13:00:00.356Z,78.30
2023-01-11T13:03:34.692Z,77.10
2023-01-11T13:06:42.973Z,77.10
2023-01-11T13:10:01.027Z,77.00
2023-01-11T13:13:12.706Z,77.10
2023-01-11T13:16:22.527Z,77.10
2023-01-11T13:19:37.352Z,77.30
2023-01-11T13:22:46.086Z,77.70
2023-01-11T13:25:52.264Z,76.80
2023-01-11T13:29:02.517Z,76.70
2023-01-11T13:32:09.683Z,77.20
2023-01-11T13:35:18.290Z,76.70
2023-01-11T13:38:34.828Z,76.70
2023-01-11T13:41:41.977Z,76.80
2023-01-11T13:44:50.584Z,76.70
2023-01-11T13:47:56.751Z,76.20
2023-01-11T13:51:04.504Z,76.60
2023-01-11T13:54:13.660Z,76.20
2023-01-11T13:57:25.428Z,75.60
2023-01-11T14:00:38.315Z,76.50
2023-01-11T14:03:46.780Z,76.50
2023-01-11T14:07:07.227Z,76.60
2023-01-11T14:10:21.505Z,76.70
2023-01-11T14:14:04.471Z,76.80
2023-01-11T14:17:27.773Z,76.30
2023-01-11T14:20:38.285Z,76.70
2023-01-11T14:23:48.797Z,76.70
2023-01-11T14:27:22.666Z,75.90
2023-01-11T14:30:42.911Z,76.70
2023-01-11T14:34:17.342Z,76.70
2023-01-11T14:37:51.993Z,76.30
2023-01-11T14:41:17.244Z,76.80
2023-01-11T14:44:52.642Z,76.80
2023-01-11T14:48:06.042Z,77.10
2023-01-11T14:51:32.597Z,76.80
2023-01-11T14:54:39.752Z,76.80
2023-01-11T14:57:44.029Z,76.80
2023-01-11T15:01:11.525Z,76.70
2023-01-11T15:04:22.611Z,76.50
2023-01-11T15:07:36.406Z,76.40
2023-01-11T15:10:57.910Z,76.30
2023-01-11T15:14:04.349Z,76.00
2023-01-11T15:17:25.053Z,76.10
2023-01-11T15:20:28.643Z,76.20
2023-01-11T15:23:36.459Z,76.50
2023-01-11T15:26:49.346Z,76.30
2023-01-11T15:29:56.465Z,75.40
2023-01-11T15:33:29.490Z,76.20
2023-01-11T15:36:55.555Z,76.50
2023-01-11T15:40:04.853Z,76.20
2023-01-11T15:43:52.648Z,76.70
2023-01-11T15:47:17.267Z,76.10
2023-01-11T15:50:49.136Z,76.10
2023-01-11T15:54:13.668Z,76.10
2023-01-11T15:57:43.037Z,76.00
2023-01-11T16:01:18.416Z,75.90
2023-01-11T16:04:28.702Z,75.30
2023-01-11T16:07:41.596Z,75.70
2023-01-11T16:10:53.295Z,76.10
2023-01-11T16:14:32.737Z,76.20
2023-01-11T16:17:39.992Z,75.50
2023-01-11T16:20:56.677Z,76.20
2023-01-11T16:23:59.805Z,75.70
2023-01-11T16:27:04.543Z,76.20
2023-01-11T16:30:20.051Z,76.40
2023-01-11T16:33:27.289Z,76.20
2023-01-11T16:36:41.757Z,76.30
2023-01-11T16:39:45.366Z,76.40
2023-01-11T16:42:54.294Z,75.80
2023-01-11T16:45:58.606Z,76.40
2023-01-11T16:49:11.468Z,76.40
2023-01-11T16:52:48.423Z,75.40
2023-01-11T16:55:56.394Z,77.60
2023-01-11T16:59:08.571Z,77.50
2023-01-11T17:02:31.942Z,76.10
2023-01-11T17:05:35.581Z,76.70
2023-01-11T17:08:41.811Z,76.80
2023-01-11T17:11:49.980Z,76.20
2023-01-11T17:15:08.326Z,76.30
2023-01-11T17:18:17.871Z,76.80
2023-01-11T17:21:24.203Z,76.40
2023-01-11T17:24:34.570Z,76.40
2023-01-11T17:27:41.482Z,75.30
2023-01-11T17:30:45.872Z,76.30
2023-01-11T17:34:00.811Z,77.20
2023-01-11T17:37:14.004Z,76.90
2023-01-11T17:40:24.423Z,76.50
2023-01-11T17:43:46.695Z,77.00
2023-01-11T17:46:50.184Z,77.00
2023-01-11T17:49:56.533Z,76.40
2023-01-11T17:53:06.840Z,77.20
2023-01-11T17:56:38.123Z,77.90
2023-01-11T17:59:41.699Z,76.80
2023-01-11T18:02:45.834Z,76.80
2023-01-11T18:05:59.382Z,77.20
2023-01-11T18:09:06.941Z,78.60
2023-01-11T18:12:16.340Z,77.20
2023-01-11T18:15:24.992Z,76.80
2023-01-11T18:18:43.393Z,78.00
2023-01-11T18:21:55.839Z,77.20
2023-01-11T18:25:00.562Z,76.90
2023-01-11T18:28:39.067Z,76.80
2023-01-11T18:31:42.618Z,77.30
2023-01-11T18:34:48.366Z,77.30
2023-01-11T18:37:52.717Z,77.40
2023-01-11T18:40:58.243Z,76.90
2023-01-11T18:44:01.823Z,77.50
2023-01-11T18:47:16.793Z,77.50
2023-01-11T18:50:21.169Z,77.50
2023-01-11T18:53:25.414Z,77.60
2023-01-11T18:56:28.473Z,77.60
2023-01-11T18:59:31.326Z,77.70
2023-01-11T19:02:42.185Z,78.70
2023-01-11T19:05:46.512Z,77.80
2023-01-11T19:08:50.768Z,77.80
2023-01-11T19:11:53.757Z,78.70
2023-01-11T19:14:56.605Z,77.10
2023-01-11T19:21:09.212Z,79.20
2023-01-11T19:24:13.515Z,77.80
2023-01-11T19:27:16.664Z,77.80
2023-01-11T19:30:19.787Z,77.90
2023-01-11T19:33:22.908Z,77.80
2023-01-11T19:36:29.102Z,77.80
2023-01-11T19:39:33.421Z,77.80
2023-01-11T19:42:36.830Z,77.70
2023-01-11T19:45:41.960Z,77.80
2023-01-11T19:48:46.884Z,77.20
2023-01-11T19:51:51.762Z,78.50
2023-01-11T19:54:59.263Z,77.80
2023-01-11T19:58:05.990Z,78.30
2023-01-11T20:01:13.300Z,77.30
2023-01-11T20:04:17.047Z,77.90
2023-01-11T20:07:20.324Z,78.00
2023-01-11T20:10:24.572Z,78.10
2023-01-11T20:13:27.374Z,78.30
2023-01-11T20:16:30.241Z,78.30
2023-01-11T20:19:33.207Z,78.40
2023-01-11T20:22:36.246Z,78.00
2023-01-11T20:25:41.346Z,78.40
2023-01-11T20:28:45.703Z,78.40
2023-01-11T20:31:50.333Z,78.40
2023-01-11T20:34:54.489Z,78.40
2023-01-11T20:37:57.363Z,79.80
2023-01-11T20:41:01.543Z,78.40
2023-01-11T20:44:05.333Z,78.30
2023-01-11T20:47:08.118Z,78.20
2023-01-11T20:50:11.572Z,78.00
2023-01-11T20:53:14.981Z,78.00
2023-01-11T20:56:19.591Z,78.00
2023-01-11T20:59:22.479Z,76.50
2023-01-11T21:02:25.398Z,77.20
2023-01-11T21:05:28.252Z,77.60
2023-01-11T21:08:31.100Z,78.90
2023-01-11T21:11:35.985Z,77.40
2023-01-11T21:14:38.836Z,77.30
2023-01-11T21:17:41.719Z,76.70
2023-01-11T21:20:47.676Z,77.10
2023-01-11T21:23:54.389Z,77.10
2023-01-11T21:26:58.883Z,77.20
2023-01-11T21:30:01.765Z,77.00
2023-01-11T21:33:04.661Z,76.80
2023-01-11T21:36:09.812Z,76.90
2023-01-11T21:39:14.004Z,76.70
2023-01-11T21:42:18.355Z,75.20
2023-01-11T21:45:21.236Z,76.00
2023-01-11T21:48:24.179Z,76.30
2023-01-11T21:51:29.669Z,76.10
2023-01-11T21:54:32.677Z,76.10
2023-01-11T21:57:36.873Z,76.10
2023-01-11T22:00:39.924Z,75.70
2023-01-11T22:03:43.112Z,77.50
2023-01-11T22:06:51.139Z,76.30
2023-01-11T22:10:04.557Z,75.90
2023-01-11T22:13:12.833Z,76.40
2023-01-11T22:16:18.301Z,75.60
2023-01-11T22:19:21.147Z,76.30
2023-01-11T22:22:24.003Z,76.30
2023-01-11T22:25:26.934Z,76.10
2023-01-11T22:28:31.149Z,75.90
2023-01-11T22:31:34.800Z,75.80
2023-01-11T22:34:39.168Z,75.00
2023-01-11T22:37:41.989Z,75.20
2023-01-11T22:40:45.767Z,75.80
2023-01-11T22:43:50.316Z,75.40
2023-01-11T22:46:53.275Z,75.80
2023-01-11T22:49:56.896Z,75.90
2023-01-11T22:53:01.270Z,75.90
2023-01-11T22:56:06.976Z,75.80
2023-01-11T22:59:11.447Z,75.50
2023-01-11T23:02:14.348Z,76.00
2023-01-11T23:05:17.231Z,76.00
2023-01-11T23:08:27.254Z,76.00
2023-01-11T23:11:48.836Z,76.00
2023-01-11T23:14:53.180Z,76.70
2023-01-11T23:18:00.384Z,76.00
2023-01-11T23:21:04.115Z,76.20
2023-01-11T23:24:07.537Z,76.20
2023-01-11T23:27:10.575Z,76.30
2023-01-11T23:30:15.315Z,76.40
2023-01-11T23:33:18.152Z,75.20
2023-01-11T23:36:22.314Z,75.90
2023-01-11T23:39:25.174Z,76.40
2023-01-11T23:42:27.034Z,77.20
2023-01-11T23:45:34.115Z,77.30
2023-01-11T23:48:36.172Z,76.40
2023-01-11T23:51:39.379Z,75.30
2023-01-11T23:54:43.354Z,76.60
2023-01-11T23:58:08.549Z,76.70
